createdAt,value
2023-05-05T00:00:19.592Z,14.8988
2023-05-05T00:01:20.669Z,14.8825
2023-05-05T00:02:21.739Z,15.0265
2023-05-05T00:03:22.900Z,14.9748
2023-05-05T00:04:23.694Z,14.6632
2023-05-05T00:05:24.762Z,14.6942
2023-05-05T00:06:25.784Z,14.8601
2023-05-05T00:07:26.836Z,14.9010
2023-05-05T00:08:27.851Z,14.6919
2023-05-05T00:09:28.942Z,14.7560
2023-05-05T00:10:29.967Z,14.7710
2023-05-05T00:11:30.974Z,14.4479
2023-05-05T00:12:32.032Z,14.3992
2023-05-05T00:13:32.996Z,14.4662
2023-05-05T00:14:34.033Z,14.5344
2023-05-05T00:15:35.091Z,14.4343
2023-05-05T00:16:36.185Z,14.3544
2023-05-05T00:17:37.201Z,14.2265
2023-05-05T00:18:38.166Z,14.1940
2023-05-05T00:19:39.233Z,14.1934
2023-05-05T00:20:40.240Z,14.1638
2023-05-05T00:21:41.312Z,13.9605
2023-05-05T00:22:42.329Z,14.1420
2023-05-05T00:23:43.376Z,14.0486
2023-05-05T00:24:44.408Z,14.1907
2023-05-05T00:25:45.456Z,14.1348
2023-05-05T00:26:46.469Z,14.0268
2023-05-05T00:27:47.529Z,13.8699
2023-05-05T00:28:48.504Z,14.0753
2023-05-05T00:29:49.567Z,13.9112
2023-05-05T00:30:50.608Z,13.9752
2023-05-05T00:31:51.632Z,13.8783
2023-05-05T00:32:52.690Z,13.7809
2023-05-05T00:33:53.732Z,13.7224
2023-05-05T00:34:54.716Z,13.9826
2023-05-05T00:35:55.812Z,14.0710
2023-05-05T00:36:56.798Z,14.2949
2023-05-05T00:37:57.873Z,14.2795
2023-05-05T00:38:58.925Z,14.5633
2023-05-05T00:39:59.936Z,14.6245
2023-05-05T00:41:00.912Z,14.5859
2023-05-05T00:42:01.995Z,14.8673
2023-05-05T00:43:03.011Z,14.5689
2023-05-05T00:44:04.082Z,14.5142
2023-05-05T00:45:05.055Z,14.5389
2023-05-05T00:46:06.137Z,14.4362
2023-05-05T00:47:07.126Z,14.4019
2023-05-05T00:48:08.224Z,14.5561
2023-05-05T00:49:09.237Z,14.6934
2023-05-05T00:50:10.270Z,14.7231
2023-05-05T00:51:11.276Z,14.6759
2023-05-05T00:52:21.587Z,14.6440
2023-05-05T00:53:22.954Z,14.5396
2023-05-05T00:54:23.998Z,14.3674
2023-05-05T00:55:24.896Z,14.4493
2023-05-05T00:56:25.967Z,14.2441
2023-05-05T00:57:26.978Z,14.2657
2023-05-05T00:58:28.132Z,14.1993
2023-05-05T00:59:29.096Z,14.3331
2023-05-05T01:00:30.109Z,14.5009
2023-05-05T01:01:31.183Z,14.4115
2023-05-05T01:02:32.276Z,14.4195
2023-05-05T01:03:33.432Z,14.5463
2023-05-05T01:04:34.297Z,14.6412
2023-05-05T01:05:35.309Z,14.5892
2023-05-05T01:06:36.316Z,14.6258
2023-05-05T01:07:37.390Z,14.5646
2023-05-05T01:08:38.421Z,14.4103
2023-05-05T01:09:39.471Z,14.4419
2023-05-05T01:10:40.601Z,14.5736
2023-05-05T01:11:41.630Z,14.4847
2023-05-05T01:12:42.652Z,14.4516
2023-05-05T01:13:43.693Z,14.4972
2023-05-05T01:14:44.734Z,14.4343
2023-05-05T01:15:45.711Z,14.3674
2023-05-05T01:16:46.755Z,14.2548
2023-05-05T01:17:47.813Z,14.1562
2023-05-05T01:18:48.879Z,14.2059
2023-05-05T01:19:49.926Z,14.2472
2023-05-05T01:20:50.900Z,14.1942
2023-05-05T01:21:51.953Z,14.3060
2023-05-05T01:22:52.953Z,14.3575
2023-05-05T01:23:54.013Z,14.3875
2023-05-05T01:24:55.175Z,14.4886
2023-05-05T01:25:56.109Z,14.5017
2023-05-05T01:26:57.148Z,14.3596
2023-05-05T01:27:58.135Z,14.3571
2023-05-05T01:28:59.274Z,14.3766
2023-05-05T01:30:00.257Z,14.2380
2023-05-05T01:31:01.333Z,14.2355
2023-05-05T01:32:02.328Z,14.2645
2023-05-05T01:33:03.313Z,14.4701
2023-05-05T01:34:04.418Z,14.3988
2023-05-05T01:35:05.417Z,14.4676
2023-05-05T01:36:06.433Z,14.4331
2023-05-05T01:37:07.521Z,14.3735
2023-05-05T01:38:08.493Z,14.2866
2023-05-05T01:39:09.614Z,14.2949
2023-05-05T01:40:10.617Z,14.2885
2023-05-05T01:41:11.611Z,14.2363
2023-05-05T01:42:12.610Z,14.2770
2023-05-05T01:43:13.694Z,14.3004
2023-05-05T01:44:14.774Z,14.2944
2023-05-05T01:45:15.849Z,14.2716
2023-05-05T01:46:16.867Z,14.4308
2023-05-05T01:47:17.819Z,14.3746
2023-05-05T01:48:18.882Z,14.2427
2023-05-05T01:49:19.995Z,14.1597
2023-05-05T01:50:21.002Z,14.1652
2023-05-05T01:51:21.973Z,14.2807
2023-05-05T01:52:23.026Z,14.2573
2023-05-05T01:53:24.018Z,14.3294
2023-05-05T01:54:25.131Z,14.3606
2023-05-05T01:55:26.172Z,14.2622
2023-05-05T01:56:27.223Z,14.2067
2023-05-05T01:57:28.179Z,14.3230
2023-05-05T01:58:29.224Z,14.4752
2023-05-05T01:59:30.302Z,14.3725
2023-05-05T02:00:31.400Z,14.3269
2023-05-05T02:01:32.323Z,14.2513
2023-05-05T02:02:33.413Z,14.2893
2023-05-05T02:03:34.404Z,14.3006
2023-05-05T02:04:35.463Z,14.3057
2023-05-05T02:05:36.490Z,14.3218
2023-05-05T02:06:37.491Z,14.1765
2023-05-05T02:07:38.550Z,14.0473
2023-05-05T02:08:39.579Z,13.9859
2023-05-05T02:09:40.677Z,13.7737
2023-05-05T02:10:41.706Z,13.9656
2023-05-05T02:11:42.665Z,13.9691
2023-05-05T02:12:43.720Z,14.0307
2023-05-05T02:13:44.893Z,13.9333
2023-05-05T02:14:45.909Z,13.8411
2023-05-05T02:15:46.959Z,13.9966
2023-05-05T02:16:47.868Z,14.2234
2023-05-05T02:17:48.928Z,14.0258
2023-05-05T02:18:49.953Z,13.8703
2023-05-05T02:19:51.035Z,13.8347
2023-05-05T02:20:52.080Z,13.8144
2023-05-05T02:21:53.073Z,13.7435
2023-05-05T02:22:54.132Z,13.6803
2023-05-05T02:23:55.115Z,13.7686
2023-05-05T02:24:56.233Z,13.7559
2023-05-05T02:25:57.233Z,13.6887
2023-05-05T02:26:58.219Z,13.7863
2023-05-05T02:27:59.295Z,13.6271
2023-05-05T02:29:00.298Z,13.6197
2023-05-05T02:30:01.400Z,13.6110
2023-05-05T02:31:02.466Z,13.7179
2023-05-05T02:32:03.338Z,13.8189
2023-05-05T02:33:04.513Z,13.7743
2023-05-05T02:34:05.473Z,13.8725
2023-05-05T02:35:06.620Z,13.9952
2023-05-05T02:36:07.623Z,14.0851
2023-05-05T02:37:08.573Z,14.0991
2023-05-05T02:38:09.627Z,14.1445
2023-05-05T02:39:10.660Z,14.1767
2023-05-05T02:40:11.786Z,14.1478
2023-05-05T02:41:12.797Z,14.1049
2023-05-05T02:42:13.793Z,14.0993
2023-05-05T02:43:14.823Z,14.1176
2023-05-05T02:44:15.841Z,14.1120
2023-05-05T02:45:16.914Z,14.0829
2023-05-05T02:46:18.011Z,14.0827
2023-05-05T02:47:18.949Z,14.0044
2023-05-05T02:48:20.080Z,13.9890
2023-05-05T02:49:21.016Z,14.0560
2023-05-05T02:50:22.185Z,14.0517
2023-05-05T02:51:23.131Z,13.9845
2023-05-05T02:52:24.218Z,13.9857
2023-05-05T02:53:25.135Z,14.0091
2023-05-05T02:54:26.233Z,13.9619
2023-05-05T02:55:27.276Z,13.9450
2023-05-05T02:56:28.354Z,13.9255
2023-05-05T02:57:29.309Z,13.9340
2023-05-05T02:58:30.351Z,13.9806
2023-05-05T02:59:31.373Z,14.0022
2023-05-05T03:00:32.456Z,13.9360
2023-05-05T03:01:33.525Z,13.9360
2023-05-05T03:02:34.518Z,13.9648
2023-05-05T03:03:35.609Z,13.9370
2023-05-05T03:04:36.566Z,13.9623
2023-05-05T03:05:37.692Z,13.9083
2023-05-05T03:06:38.654Z,13.9290
2023-05-05T03:07:39.653Z,13.9247
2023-05-05T03:08:40.774Z,13.9526
2023-05-05T03:09:41.712Z,14.0326
2023-05-05T03:10:42.815Z,14.0903
2023-05-05T03:11:43.867Z,14.1098
2023-05-05T03:12:44.895Z,14.1153
2023-05-05T03:13:45.914Z,14.1067
2023-05-05T03:14:46.898Z,14.1196
2023-05-05T03:15:47.996Z,14.0882
2023-05-05T03:16:49.015Z,14.1143
2023-05-05T03:17:50.021Z,14.1122
2023-05-05T03:18:51.102Z,14.0648
2023-05-05T03:19:52.080Z,14.1184
2023-05-05T03:20:53.134Z,14.1067
2023-05-05T03:21:54.275Z,14.0332
2023-05-05T03:22:55.241Z,14.1020
2023-05-05T03:23:56.293Z,14.1291
2023-05-05T03:24:57.295Z,14.1336
2023-05-05T03:25:58.336Z,14.1451
2023-05-05T03:26:59.378Z,14.1034
2023-05-05T03:28:00.352Z,14.2314
2023-05-05T03:29:01.370Z,14.2608
2023-05-05T03:30:02.448Z,14.1899
2023-05-05T03:31:03.495Z,14.1196
2023-05-05T03:32:04.656Z,14.1229
2023-05-05T03:33:05.565Z,14.0656
2023-05-05T03:34:06.575Z,14.0623
2023-05-05T03:35:07.587Z,14.0260
2023-05-05T03:36:08.675Z,14.0453
2023-05-05T03:37:09.782Z,13.9833
2023-05-05T03:38:10.771Z,13.9705
2023-05-05T03:39:11.741Z,13.9744
2023-05-05T03:40:12.783Z,13.9674
2023-05-05T03:41:13.851Z,13.9395
2023-05-05T03:42:14.931Z,13.9479
2023-05-05T03:43:15.848Z,13.9976
2023-05-05T03:44:16.953Z,13.8902
2023-05-05T03:45:17.991Z,13.9171
2023-05-05T03:46:19.139Z,13.9740
2023-05-05T03:47:20.081Z,13.9062
2023-05-05T03:48:21.033Z,13.9898
2023-05-05T03:49:22.063Z,14.0408
2023-05-05T03:50:23.185Z,14.0385
2023-05-05T03:51:24.172Z,14.1301
2023-05-05T03:52:25.208Z,14.0936
2023-05-05T03:53:26.172Z,13.9674
2023-05-05T03:54:27.230Z,14.0021
2023-05-05T03:55:28.337Z,13.9105
2023-05-05T03:56:29.428Z,13.9040
2023-05-05T03:57:30.431Z,13.8261
2023-05-05T03:58:31.391Z,13.7799
2023-05-05T03:59:32.443Z,13.8101
2023-05-05T04:00:33.453Z,13.6811
2023-05-05T04:01:34.537Z,13.6121
2023-05-05T04:02:35.627Z,13.5839
2023-05-05T04:03:36.657Z,13.4703
2023-05-05T04:04:37.618Z,13.5507
2023-05-05T04:05:38.628Z,13.5640
2023-05-05T04:06:39.757Z,13.4553
2023-05-05T04:07:40.739Z,13.4445
2023-05-05T04:08:41.790Z,13.5936
2023-05-05T04:09:42.793Z,13.7049
2023-05-05T04:10:43.836Z,13.6057
2023-05-05T04:11:44.947Z,13.4517
2023-05-05T04:12:46.003Z,13.4999
2023-05-05T04:13:46.959Z,13.4282
2023-05-05T04:14:48.000Z,13.4447
2023-05-05T04:15:49.050Z,13.4999
2023-05-05T04:16:50.097Z,13.3890
2023-05-05T04:17:51.194Z,13.3520
2023-05-05T04:18:52.157Z,13.3526
2023-05-05T04:19:53.137Z,13.2415
2023-05-05T04:20:54.219Z,13.2109
2023-05-05T04:21:55.281Z,13.1885
2023-05-05T04:22:56.389Z,13.2080
2023-05-05T04:23:57.287Z,13.1419
2023-05-05T04:24:58.353Z,13.1347
2023-05-05T04:25:59.353Z,13.1253
2023-05-05T04:27:00.505Z,13.2107
2023-05-05T04:28:01.605Z,13.1259
2023-05-05T04:29:02.526Z,13.2637
2023-05-05T04:30:03.515Z,13.3925
2023-05-05T04:31:04.563Z,13.4681
2023-05-05T04:32:05.651Z,13.4857
2023-05-05T04:33:06.674Z,13.4467
2023-05-05T04:34:07.672Z,13.5385
2023-05-05T04:35:08.684Z,13.4553
2023-05-05T04:36:09.735Z,13.4566
2023-05-05T04:37:10.853Z,13.4779
2023-05-05T04:38:11.870Z,13.4553
2023-05-05T04:39:12.837Z,13.4954
2023-05-05T04:40:13.902Z,13.5583
2023-05-05T04:41:14.939Z,13.6098
2023-05-05T04:42:15.995Z,13.6022
2023-05-05T04:43:17.007Z,13.6055
2023-05-05T04:44:17.976Z,13.6550
2023-05-05T04:45:19.072Z,13.6819
2023-05-05T04:46:20.200Z,13.6766
2023-05-05T04:47:21.172Z,13.6799
2023-05-05T04:48:22.194Z,13.6560
2023-05-05T04:49:23.201Z,13.6141
2023-05-05T04:50:24.205Z,13.6110
2023-05-05T04:51:25.248Z,13.6143
2023-05-05T04:52:26.334Z,13.5874
2023-05-05T04:53:27.401Z,13.5938
2023-05-05T04:54:28.407Z,13.6061
2023-05-05T04:55:29.399Z,13.5599
2023-05-05T04:56:30.447Z,13.5774
2023-05-05T04:57:31.518Z,13.5917
2023-05-05T04:58:32.562Z,13.5184
2023-05-05T04:59:33.558Z,13.4925
2023-05-05T05:00:34.622Z,13.5085
2023-05-05T05:01:37.730Z,13.5075
2023-05-05T05:02:36.727Z,13.5537
2023-05-05T05:03:39.156Z,13.5640
2023-05-05T05:04:38.765Z,13.6856
2023-05-05T05:05:39.757Z,13.8464
2023-05-05T05:06:40.797Z,13.8487
2023-05-05T05:07:41.878Z,13.8855
2023-05-05T05:08:42.910Z,13.9101
2023-05-05T05:09:43.956Z,13.9565
2023-05-05T05:10:44.999Z,14.0346
2023-05-05T05:11:46.030Z,14.0706
2023-05-05T05:12:47.032Z,14.0872
2023-05-05T05:13:48.062Z,14.1293
2023-05-05T05:14:49.067Z,14.2677
2023-05-05T05:15:50.107Z,14.3316
2023-05-05T05:16:51.225Z,14.3856
2023-05-05T05:17:52.181Z,14.4660
2023-05-05T05:18:53.213Z,14.5333
2023-05-05T05:19:54.245Z,14.5570
2023-05-05T05:20:55.245Z,14.6377
2023-05-05T05:21:56.289Z,14.8404
2023-05-05T05:22:57.373Z,15.0060
2023-05-05T05:23:58.402Z,14.9649
2023-05-05T05:24:59.408Z,15.0370
2023-05-05T05:26:00.421Z,15.0239
2023-05-05T05:27:01.452Z,15.0662
2023-05-05T05:28:10.164Z,15.0951
2023-05-05T05:29:03.630Z,15.0641
2023-05-05T05:30:04.592Z,15.1607
2023-05-05T05:31:05.606Z,15.2356
2023-05-05T05:32:06.814Z,15.2562
2023-05-05T05:33:07.855Z,15.2944
2023-05-05T05:34:09.767Z,15.3336
2023-05-05T05:35:09.769Z,15.3942
2023-05-05T05:36:10.803Z,15.5246
2023-05-05T05:37:11.843Z,15.7257
2023-05-05T05:38:12.918Z,15.7545
2023-05-05T05:39:14.104Z,15.7822
2023-05-05T05:40:14.945Z,15.8022
2023-05-05T05:41:15.963Z,16.0211
2023-05-05T05:42:17.018Z,16.1337
2023-05-05T05:43:18.055Z,16.0295
2023-05-05T05:44:19.194Z,16.0743
2023-05-05T05:45:20.115Z,15.9012
2023-05-05T05:46:21.217Z,16.1768
2023-05-05T05:47:22.182Z,16.0969
2023-05-05T05:48:23.270Z,16.0998
2023-05-05T05:49:24.338Z,16.3023
2023-05-05T05:50:25.323Z,16.2953
2023-05-05T05:51:26.322Z,16.3773
2023-05-05T05:52:27.383Z,16.6033
2023-05-05T05:53:28.430Z,16.7152
2023-05-05T05:54:29.443Z,16.6150
2023-05-05T05:55:30.513Z,16.6293
2023-05-05T05:56:31.533Z,16.7542
2023-05-05T05:57:32.563Z,16.9471
2023-05-05T05:58:33.587Z,16.6458
2023-05-05T05:59:34.658Z,17.0619
2023-05-05T06:00:35.616Z,17.1264
2023-05-05T06:01:36.694Z,17.0915
2023-05-05T06:02:37.791Z,17.2951
2023-05-05T06:03:38.869Z,17.3735
2023-05-05T06:04:39.880Z,17.5216
2023-05-05T06:05:40.844Z,17.4662
2023-05-05T06:06:41.824Z,17.4163
2023-05-05T06:07:42.927Z,17.6586
2023-05-05T06:08:43.950Z,17.1681
2023-05-05T06:09:44.984Z,16.7889
2023-05-05T06:10:46.001Z,16.8074
2023-05-05T06:11:47.036Z,16.9305
2023-05-05T06:12:48.084Z,16.8740
2023-05-05T06:13:49.083Z,17.2885
2023-05-05T06:14:50.154Z,17.2135
2023-05-05T06:15:51.240Z,16.9223
2023-05-05T06:16:52.228Z,17.5905
2023-05-05T06:17:53.311Z,17.8187
2023-05-05T06:18:54.284Z,18.2599
2023-05-05T06:19:55.354Z,17.9497
2023-05-05T06:20:56.361Z,17.8209
2023-05-05T06:21:57.419Z,17.9066
2023-05-05T06:22:58.452Z,18.2354
2023-05-05T06:23:59.475Z,18.2106
2023-05-05T06:25:00.502Z,18.1266
2023-05-05T06:26:01.604Z,18.1336
2023-05-05T06:27:02.600Z,18.8055
2023-05-05T06:28:03.611Z,19.2181
2023-05-05T06:29:04.614Z,18.9542
2023-05-05T06:30:05.937Z,19.3163
2023-05-05T06:31:06.747Z,19.2040
2023-05-05T06:32:07.784Z,19.3572
2023-05-05T06:33:08.820Z,19.6760
2023-05-05T06:34:09.782Z,19.7347
2023-05-05T06:35:10.854Z,20.0326
2023-05-05T06:36:11.916Z,19.5390
2023-05-05T06:37:12.923Z,19.2652
2023-05-05T06:38:14.148Z,18.8827
2023-05-05T06:39:16.169Z,19.5782
2023-05-05T06:40:16.125Z,19.6978
2023-05-05T06:41:17.148Z,19.6522
2023-05-05T06:42:18.230Z,19.6552
2023-05-05T06:43:19.265Z,19.0696
2023-05-05T06:44:20.302Z,18.9051
2023-05-05T06:45:21.287Z,18.4378
2023-05-05T06:46:22.407Z,18.3305
2023-05-05T06:47:23.404Z,18.1979
2023-05-05T06:48:24.447Z,18.2387
2023-05-05T06:49:25.464Z,18.0343
2023-05-05T06:50:26.463Z,18.0832
2023-05-05T06:51:27.502Z,18.2239
2023-05-05T06:52:28.614Z,18.3156
2023-05-05T06:53:29.576Z,18.2196
2023-05-05T06:54:30.593Z,18.2693
2023-05-05T06:55:31.731Z,18.1416
2023-05-05T06:56:32.701Z,18.2131
2023-05-05T06:57:33.746Z,18.4489
2023-05-05T06:58:34.841Z,18.4780
2023-05-05T06:59:35.791Z,18.5187
2023-05-05T07:00:36.894Z,18.7177
2023-05-05T07:01:37.858Z,18.5265
2023-05-05T07:02:39.055Z,18.6456
2023-05-05T07:03:40.020Z,18.7301
2023-05-05T07:04:41.096Z,18.8435
2023-05-05T07:05:42.007Z,18.5514
2023-05-05T07:06:43.140Z,18.7430
2023-05-05T07:07:44.114Z,18.6378
2023-05-05T07:08:45.226Z,19.0103
2023-05-05T07:09:46.195Z,18.8944
2023-05-05T07:10:47.328Z,18.4809
2023-05-05T07:11:48.268Z,18.7580
2023-05-05T07:12:49.387Z,18.7950
2023-05-05T07:13:50.371Z,18.7566
2023-05-05T07:14:51.417Z,18.3503
2023-05-05T07:15:52.390Z,18.0286
2023-05-05T07:16:53.590Z,18.3860
2023-05-05T07:17:54.547Z,18.4012
2023-05-05T07:18:55.538Z,18.5698
2023-05-05T07:19:56.579Z,18.7613
2023-05-05T07:20:57.542Z,18.8656
2023-05-05T07:21:58.596Z,18.8393
2023-05-05T07:22:59.621Z,18.9597
2023-05-05T07:24:00.714Z,19.0300
2023-05-05T07:25:01.707Z,18.7872
2023-05-05T07:26:02.850Z,18.9809
2023-05-05T07:27:03.740Z,19.2040
2023-05-05T07:28:04.841Z,19.1902
2023-05-05T07:29:05.873Z,18.7829
2023-05-05T07:30:11.211Z,19.0431
2023-05-05T07:31:07.889Z,19.0427
2023-05-05T07:32:09.024Z,18.8761
2023-05-05T07:33:10.087Z,18.6021
2023-05-05T07:34:11.058Z,18.4694
2023-05-05T07:35:12.127Z,18.6152
2023-05-05T07:36:13.151Z,18.8472
2023-05-05T07:37:14.106Z,19.1251
2023-05-05T07:38:15.165Z,19.0439
2023-05-05T07:39:16.223Z,19.4560
2023-05-05T07:40:17.279Z,19.6045
2023-05-05T07:41:18.299Z,19.5953
2023-05-05T07:42:19.316Z,19.2785
2023-05-05T07:43:20.318Z,19.1123
2023-05-05T07:44:21.459Z,19.0443
2023-05-05T07:45:22.424Z,19.1232
2023-05-05T07:46:23.467Z,19.0503
2023-05-05T07:47:24.542Z,19.4124
2023-05-05T07:48:25.566Z,19.3675
2023-05-05T07:49:26.569Z,19.2623
2023-05-05T07:50:27.627Z,19.2103
2023-05-05T07:51:28.594Z,19.1405
2023-05-05T07:52:44.223Z,19.1399
2023-05-05T07:53:30.666Z,19.0936
2023-05-05T07:54:31.799Z,19.0782
2023-05-05T07:55:32.752Z,19.1123
2023-05-05T07:56:33.856Z,18.8215
2023-05-05T07:57:34.796Z,19.2093
2023-05-05T07:58:35.865Z,19.2808
2023-05-05T07:59:36.914Z,19.3364
2023-05-05T08:00:37.981Z,19.6517
2023-05-05T08:01:38.930Z,19.9219
2023-05-05T08:02:40.067Z,20.6866
2023-05-05T08:03:41.076Z,20.8764
2023-05-05T08:04:42.306Z,21.7364
2023-05-05T08:05:43.187Z,21.7623
2023-05-05T08:06:44.194Z,22.9843
2023-05-05T08:07:45.189Z,23.4818
2023-05-05T08:08:46.166Z,22.8765
2023-05-05T08:09:47.285Z,22.3021
2023-05-05T08:10:48.318Z,22.6647
2023-05-05T08:11:49.365Z,22.9334
2023-05-05T08:12:50.322Z,22.7518
2023-05-05T08:13:51.447Z,22.4973
2023-05-05T08:14:52.418Z,21.4096
2023-05-05T08:15:53.542Z,21.1017
2023-05-05T08:16:54.472Z,21.1430
2023-05-05T08:17:55.582Z,21.6611
2023-05-05T08:18:56.539Z,22.3063
2023-05-05T08:19:57.620Z,22.3872
2023-05-05T08:20:58.652Z,22.3249
2023-05-05T08:22:01.374Z,22.5135
2023-05-05T08:23:00.686Z,21.5208
2023-05-05T08:24:01.732Z,21.8620
2023-05-05T08:25:02.782Z,22.6170
2023-05-05T08:26:03.887Z,21.9332
2023-05-05T08:27:04.872Z,21.7494
2023-05-05T08:28:05.866Z,22.6267
2023-05-05T08:29:06.872Z,23.3536
2023-05-05T08:30:07.981Z,23.5071
2023-05-05T08:31:09.011Z,23.1669
2023-05-05T08:32:10.020Z,21.5105
2023-05-05T08:33:11.094Z,21.9232
2023-05-05T08:34:12.088Z,20.7971
2023-05-05T08:35:13.359Z,20.6780
2023-05-05T08:36:14.185Z,20.8238
2023-05-05T08:37:15.206Z,21.0941
2023-05-05T08:38:16.223Z,20.8967
2023-05-05T08:39:17.316Z,20.2466
2023-05-05T08:40:18.321Z,20.3935
2023-05-05T08:41:19.345Z,20.3596
2023-05-05T08:42:35.605Z,20.0472
2023-05-05T08:43:21.331Z,20.2431
2023-05-05T08:44:22.401Z,20.1614
2023-05-05T08:45:23.481Z,19.9276
2023-05-05T08:46:24.523Z,19.6803
2023-05-05T08:47:25.527Z,19.6382
2023-05-05T08:48:26.596Z,19.5246
2023-05-05T08:49:27.536Z,19.7378
2023-05-05T08:50:28.647Z,19.6622
2023-05-05T08:51:29.674Z,19.5560
2023-05-05T08:52:30.741Z,19.6176
2023-05-05T08:53:31.716Z,19.5644
2023-05-05T08:54:32.738Z,19.3373
2023-05-05T08:55:33.794Z,19.3966
2023-05-05T08:56:34.847Z,19.6692
2023-05-05T08:57:35.917Z,19.5326
2023-05-05T08:58:36.910Z,19.7279
2023-05-05T08:59:37.908Z,19.9284
2023-05-05T09:00:39.028Z,20.0611
2023-05-05T09:01:40.042Z,20.0862
2023-05-05T09:02:41.105Z,20.0698
2023-05-05T09:03:42.311Z,20.2852
2023-05-05T09:04:43.093Z,20.1833
2023-05-05T09:05:44.151Z,20.0704
2023-05-05T09:06:45.234Z,20.2029
2023-05-05T09:07:46.233Z,20.2863
2023-05-05T09:08:47.235Z,20.3608
2023-05-05T09:09:48.246Z,20.2429
2023-05-05T09:10:49.435Z,20.1449
2023-05-05T09:11:50.447Z,20.0790
2023-05-05T09:12:51.702Z,19.9603
2023-05-05T09:13:52.469Z,19.7807
2023-05-05T09:14:53.552Z,19.7267
2023-05-05T09:15:54.565Z,19.6230
2023-05-05T09:16:55.601Z,19.6661
2023-05-05T09:17:56.636Z,19.7214
2023-05-05T09:18:57.654Z,19.7355
2023-05-05T09:19:58.672Z,19.6885
2023-05-05T09:20:59.826Z,19.9687
2023-05-05T09:22:00.804Z,19.9755
2023-05-05T09:23:01.790Z,19.7351
2023-05-05T09:24:07.824Z,19.7405
2023-05-05T09:25:03.902Z,19.7134
2023-05-05T09:26:04.954Z,19.8111
2023-05-05T09:27:05.976Z,19.9171
2023-05-05T09:28:07.008Z,19.8939
2023-05-05T09:29:08.006Z,19.8908
2023-05-05T09:30:09.037Z,20.1357
2023-05-05T09:31:10.149Z,20.2127
2023-05-05T09:32:11.241Z,19.9964
2023-05-05T09:33:12.177Z,20.1720
2023-05-05T09:34:13.185Z,20.2819
2023-05-05T09:35:14.253Z,20.2429
2023-05-05T09:36:15.280Z,20.3469
2023-05-05T09:37:16.285Z,20.2926
2023-05-05T09:38:17.338Z,20.3740
2023-05-05T09:39:18.346Z,20.5991
2023-05-05T09:40:19.533Z,20.8427
2023-05-05T09:41:20.441Z,20.9832
2023-05-05T09:42:21.540Z,21.0311
2023-05-05T09:43:22.496Z,20.7256
2023-05-05T09:44:23.497Z,20.5159
2023-05-05T09:45:24.516Z,20.6615
2023-05-05T09:46:25.726Z,20.8359
2023-05-05T09:47:29.904Z,20.5026
2023-05-05T09:48:27.736Z,20.4736
2023-05-05T09:49:28.653Z,20.3783
2023-05-05T09:50:29.730Z,20.2351
2023-05-05T09:51:30.753Z,20.1659
2023-05-05T09:52:31.831Z,20.1587
2023-05-05T09:53:32.797Z,20.1166
2023-05-05T09:54:33.835Z,20.0687
2023-05-05T09:55:34.826Z,20.3631
2023-05-05T09:56:35.966Z,20.6667
2023-05-05T09:57:37.011Z,20.6170
2023-05-05T09:58:38.077Z,20.5872
2023-05-05T09:59:38.986Z,20.4680
2023-05-05T10:00:40.009Z,20.3232
2023-05-05T10:01:41.115Z,20.2131
2023-05-05T10:02:42.242Z,20.2834
2023-05-05T10:03:43.105Z,20.5734
2023-05-05T10:04:44.158Z,20.6815
2023-05-05T10:05:45.157Z,20.6449
2023-05-05T10:06:46.263Z,20.5512
2023-05-05T10:07:47.321Z,20.8098
2023-05-05T10:08:48.285Z,20.8922
2023-05-05T10:09:49.329Z,20.8633
2023-05-05T10:10:50.326Z,21.0563
2023-05-05T10:11:51.442Z,21.1611
2023-05-05T10:12:52.496Z,21.1915
2023-05-05T10:13:53.479Z,21.3234
2023-05-05T10:14:54.434Z,21.3870
2023-05-05T10:15:55.518Z,21.4604
2023-05-05T10:16:56.593Z,21.1336
2023-05-05T10:18:06.893Z,21.4154
2023-05-05T10:18:58.591Z,21.1032
2023-05-05T10:19:59.640Z,21.4456
2023-05-05T10:21:00.662Z,21.4423
2023-05-05T10:22:01.740Z,21.7469
2023-05-05T10:23:02.715Z,21.9907
2023-05-05T10:24:03.661Z,21.9014
2023-05-05T10:25:04.724Z,21.7426
2023-05-05T10:26:05.725Z,21.3681
2023-05-05T10:27:06.808Z,21.4889
2023-05-05T10:28:07.843Z,21.4322
2023-05-05T10:29:08.868Z,21.5912
2023-05-05T10:30:10.110Z,21.3265
2023-05-05T10:31:24.587Z,21.4893
2023-05-05T10:32:33.545Z,21.2646
2023-05-05T10:33:30.212Z,21.2122
2023-05-05T10:34:14.107Z,21.0756
2023-05-05T10:35:15.074Z,21.0066
2023-05-05T10:36:16.136Z,20.8600
2023-05-05T10:37:17.125Z,20.8515
2023-05-05T10:38:18.160Z,20.9473
2023-05-05T10:39:19.336Z,20.9401
2023-05-05T10:40:20.377Z,20.9528
2023-05-05T10:41:21.334Z,21.1500
2023-05-05T10:42:22.424Z,21.3295
2023-05-05T10:43:23.540Z,21.2757
2023-05-05T10:44:24.572Z,21.2788
2023-05-05T10:45:25.627Z,21.2225
2023-05-05T10:46:26.770Z,21.3778
2023-05-05T10:47:27.590Z,21.0333
2023-05-05T10:48:28.700Z,20.7086
2023-05-05T10:49:29.734Z,20.8294
2023-05-05T10:50:30.780Z,20.7819
2023-05-05T10:51:40.459Z,20.8240
2023-05-05T10:52:32.789Z,20.7367
2023-05-05T10:53:33.825Z,21.0403
2023-05-05T10:54:37.173Z,21.2496
2023-05-05T10:55:35.879Z,21.2320
2023-05-05T10:56:36.940Z,21.0288
2023-05-05T10:57:37.976Z,21.1960
2023-05-05T10:58:47.477Z,21.3384
2023-05-05T10:59:40.181Z,21.2909
2023-05-05T11:00:41.077Z,21.2897
2023-05-05T11:01:42.145Z,21.3928
2023-05-05T11:02:43.212Z,21.2235
2023-05-05T11:03:44.206Z,21.3232
2023-05-05T11:04:45.237Z,21.3341
2023-05-05T11:05:46.195Z,21.3593
2023-05-05T11:06:47.300Z,21.2681
2023-05-05T11:07:48.282Z,21.2983
2023-05-05T11:08:49.354Z,20.9898
2023-05-05T11:09:50.479Z,20.8667
2023-05-05T11:10:51.420Z,21.0717
2023-05-05T11:11:52.446Z,21.2601
2023-05-05T11:12:53.521Z,21.0602
2023-05-05T11:13:54.530Z,21.3359
2023-05-05T11:14:55.621Z,21.1839
2023-05-05T11:15:56.536Z,20.9943
2023-05-05T11:16:57.640Z,21.1151
2023-05-05T11:17:58.675Z,21.2240
2023-05-05T11:18:59.747Z,21.4273
2023-05-05T11:20:00.753Z,21.4033
2023-05-05T11:21:01.798Z,21.3402
2023-05-05T11:22:02.772Z,21.2246
2023-05-05T11:23:03.829Z,21.2700
2023-05-05T11:24:04.884Z,21.6611
2023-05-05T11:25:05.917Z,21.5982
2023-05-05T11:26:06.969Z,21.8433
2023-05-05T11:27:07.891Z,21.5766
2023-05-05T11:28:09.065Z,21.5666
2023-05-05T11:29:10.046Z,21.5863
2023-05-05T11:30:11.343Z,21.5990
2023-05-05T11:31:12.077Z,21.6598
2023-05-05T11:32:13.106Z,21.6185
2023-05-05T11:33:14.091Z,21.6588
2023-05-05T11:34:15.193Z,21.8266
2023-05-05T11:35:16.242Z,21.7747
2023-05-05T11:36:17.294Z,21.6315
2023-05-05T11:37:18.235Z,21.6187
2023-05-05T11:38:19.302Z,21.4684
2023-05-05T11:39:20.340Z,21.4766
2023-05-05T11:40:21.399Z,21.4444
2023-05-05T11:41:22.360Z,21.5721
2023-05-05T11:42:23.434Z,21.5894
2023-05-05T11:43:24.476Z,21.6450
2023-05-05T11:44:25.526Z,21.6966
2023-05-05T11:45:26.669Z,21.5302
2023-05-05T11:46:27.593Z,21.5460
2023-05-05T11:47:28.602Z,21.6155
2023-05-05T11:48:29.632Z,21.5259
2023-05-05T11:49:30.720Z,21.7543
2023-05-05T11:50:31.715Z,21.8961
2023-05-05T11:51:32.688Z,22.0113
2023-05-05T11:52:33.768Z,22.0614
2023-05-05T11:53:34.781Z,21.9868
2023-05-05T11:54:35.856Z,22.0811
2023-05-05T11:55:36.907Z,22.0532
2023-05-05T11:56:37.868Z,22.4531
2023-05-05T11:57:38.859Z,22.4782
2023-05-05T11:58:39.925Z,22.1641
2023-05-05T11:59:40.979Z,22.1534
2023-05-05T12:00:42.034Z,22.1304
2023-05-05T12:01:43.006Z,22.1148
2023-05-05T12:02:44.192Z,21.9121
2023-05-05T12:03:45.289Z,21.9649
2023-05-05T12:04:46.197Z,22.1004
2023-05-05T12:05:47.156Z,22.0789
2023-05-05T12:06:48.166Z,22.4092
2023-05-05T12:07:49.215Z,22.3128
2023-05-05T12:08:50.277Z,22.2543
2023-05-05T12:09:51.352Z,22.4675
2023-05-05T12:10:52.356Z,22.4381
2023-05-05T12:11:53.337Z,22.5774
2023-05-05T12:12:55.521Z,22.6199
2023-05-05T12:13:55.379Z,22.5942
2023-05-05T12:14:56.452Z,22.6244
2023-05-05T12:15:57.643Z,22.5755
2023-05-05T12:16:58.610Z,22.4318
2023-05-05T12:18:02.111Z,22.6591